sensor_id;sensor_type;location;lat;lon;timestamp;temperature;humidity
28069;DHT22;15382;47.578;8.086;2023-11-21T00:00:05;8.00;99.90
28069;DHT22;15382;47.578;8.086;2023-11-21T00:10:13;8.00;99.90
28069;DHT22;15382;47.578;8.086;2023-11-21T00:20:14;8.00;99.90
28069;DHT22;15382;47.578;8.086;2023-11-21T00:30:15;8.00;99.90
28069;DHT22;15382;47.578;8.086;2023-11-21T00:40:16;8.00;99.90
28069;DHT22;15382;47.578;8.086;2023-11-21T00:50:19;8.00;99.90
28069;DHT22;15382;47.578;8.086;2023-11-21T01:00:20;7.70;99.90
28069;DHT22;15382;47.578;8.086;2023-11-21T01:10:21;7.70;99.90
28069;DHT22;15382;47.578;8.086;2023-11-21T01:20:21;7.70;99.90
28069;DHT22;15382;47.578;8.086;2023-11-21T01:30:22;7.70;99.90
28069;DHT22;15382;47.578;8.086;2023-11-21T01:40:23;7.80;99.90
28069;DHT22;15382;47.578;8.086;2023-11-21T01:50:25;7.70;99.90
28069;DHT22;15382;47.578;8.086;2023-11-21T02:00:26;7.60;99.90
28069;DHT22;15382;47.578;8.086;2023-11-21T02:10:30;7.50;99.90
28069;DHT22;15382;47.578;8.086;2023-11-21T02:20:32;7.50;99.90
28069;DHT22;15382;47.578;8.086;2023-11-21T02:30:35;7.50;99.90
28069;DHT22;15382;47.578;8.086;2023-11-21T02:40:37;7.50;99.90
28069;DHT22;15382;47.578;8.086;2023-11-21T02:50:38;7.50;99.90
28069;DHT22;15382;47.578;8.086;2023-11-21T03:00:38;7.50;99.90
28069;DHT22;15382;47.578;8.086;2023-11-21T03:10:42;7.50;99.90
28069;DHT22;15382;47.578;8.086;2023-11-21T03:20:43;7.60;99.90
28069;DHT22;15382;47.578;8.086;2023-11-21T03:30:46;7.50;99.90
28069;DHT22;15382;47.578;8.086;2023-11-21T03:40:47;7.40;99.90
28069;DHT22;15382;47.578;8.086;2023-11-21T03:50:48;7.30;99.90
28069;DHT22;15382;47.578;8.086;2023-11-21T04:00:49;7.30;99.90
28069;DHT22;15382;47.578;8.086;2023-11-21T04:10:49;7.20;99.90
28069;DHT22;15382;47.578;8.086;2023-11-21T04:20:50;7.10;99.90
28069;DHT22;15382;47.578;8.086;2023-11-21T04:30:51;7.10;99.90
28069;DHT22;15382;47.578;8.086;2023-11-21T04:40:52;7.00;99.90
28069;DHT22;15382;47.578;8.086;2023-11-21T04:50:52;7.00;99.90
28069;DHT22;15382;47.578;8.086;2023-11-21T05:00:53;7.10;99.90
28069;DHT22;15382;47.578;8.086;2023-11-21T05:10:54;7.00;99.90
28069;DHT22;15382;47.578;8.086;2023-11-21T05:20:54;7.00;99.90
28069;DHT22;15382;47.578;8.086;2023-11-21T05:30:55;6.90;99.90
28069;DHT22;15382;47.578;8.086;2023-11-21T05:40:56;7.00;99.90
28069;DHT22;15382;47.578;8.086;2023-11-21T05:50:59;7.10;99.90
28069;DHT22;15382;47.578;8.086;2023-11-21T06:00:59;7.10;99.90
28069;DHT22;15382;47.578;8.086;2023-11-21T06:11:00;7.20;99.90
28069;DHT22;15382;47.578;8.086;2023-11-21T06:21:01;7.20;99.90
28069;DHT22;15382;47.578;8.086;2023-11-21T06:31:01;7.20;99.90
28069;DHT22;15382;47.578;8.086;2023-11-21T06:41:05;7.20;99.90
28069;DHT22;15382;47.578;8.086;2023-11-21T06:51:06;7.20;99.90
28069;DHT22;15382;47.578;8.086;2023-11-21T07:01:07;7.20;99.90
28069;DHT22;15382;47.578;8.086;2023-11-21T07:11:11;7.30;99.90
28069;DHT22;15382;47.578;8.086;2023-11-21T07:21:12;7.30;99.90
28069;DHT22;15382;47.578;8.086;2023-11-21T07:31:13;7.40;99.90
28069;DHT22;15382;47.578;8.086;2023-11-21T07:41:14;7.40;99.90
28069;DHT22;15382;47.578;8.086;2023-11-21T07:51:17;7.40;99.90
28069;DHT22;15382;47.578;8.086;2023-11-21T08:01:18;7.50;99.90
28069;DHT22;15382;47.578;8.086;2023-11-21T08:11:19;7.50;99.90
28069;DHT22;15382;47.578;8.086;2023-11-21T08:21:20;7.50;99.90
28069;DHT22;15382;47.578;8.086;2023-11-21T08:31:24;7.60;99.90
28069;DHT22;15382;47.578;8.086;2023-11-21T08:41:25;7.70;99.90
28069;DHT22;15382;47.578;8.086;2023-11-21T08:51:28;7.80;99.90
28069;DHT22;15382;47.578;8.086;2023-11-21T09:01:29;8.10;99.90
28069;DHT22;15382;47.578;8.086;2023-11-21T09:11:32;8.40;99.90
28069;DHT22;15382;47.578;8.086;2023-11-21T09:21:34;8.50;99.90
28069;DHT22;15382;47.578;8.086;2023-11-21T09:31:34;8.60;99.90
28069;DHT22;15382;47.578;8.086;2023-11-21T09:41:42;8.50;99.90
28069;DHT22;15382;47.578;8.086;2023-11-21T09:51:44;8.80;99.90
28069;DHT22;15382;47.578;8.086;2023-11-21T10:01:45;8.60;99.90
28069;DHT22;15382;47.578;8.086;2023-11-21T10:11:47;8.70;99.90
28069;DHT22;15382;47.578;8.086;2023-11-21T10:21:47;8.90;99.90
28069;DHT22;15382;47.578;8.086;2023-11-21T10:31:51;8.80;99.90
28069;DHT22;15382;47.578;8.086;2023-11-21T10:41:54;8.90;99.90
28069;DHT22;15382;47.578;8.086;2023-11-21T10:51:55;8.90;99.90
28069;DHT22;15382;47.578;8.086;2023-11-21T11:01:57;8.80;99.90
28069;DHT22;15382;47.578;8.086;2023-11-21T11:11:58;8.80;99.90
28069;DHT22;15382;47.578;8.086;2023-11-21T11:22:03;8.90;99.90
28069;DHT22;15382;47.578;8.086;2023-11-21T11:42:28;8.60;99.90
28069;DHT22;15382;47.578;8.086;2023-11-21T11:52:34;8.60;99.90
28069;DHT22;15382;47.578;8.086;2023-11-21T12:02:36;8.60;99.90
28069;DHT22;15382;47.578;8.086;2023-11-21T12:12:37;8.60;99.90
28069;DHT22;15382;47.578;8.086;2023-11-21T12:22:45;8.60;99.90
28069;DHT22;15382;47.578;8.086;2023-11-21T12:32:49;8.70;99.90
28069;DHT22;15382;47.578;8.086;2023-11-21T12:42:52;8.80;99.90
28069;DHT22;15382;47.578;8.086;2023-11-21T12:52:53;8.80;99.90
28069;DHT22;15382;47.578;8.086;2023-11-21T13:02:54;9.00;99.90
28069;DHT22;15382;47.578;8.086;2023-11-21T13:12:57;9.10;99.90
28069;DHT22;15382;47.578;8.086;2023-11-21T13:22:58;9.20;99.90
28069;DHT22;15382;47.578;8.086;2023-11-21T13:33:01;9.40;99.90
28069;DHT22;15382;47.578;8.086;2023-11-21T13:43:02;9.20;99.90
28069;DHT22;15382;47.578;8.086;2023-11-21T13:53:05;8.80;99.90
28069;DHT22;15382;47.578;8.086;2023-11-21T14:03:22;8.80;99.90
28069;DHT22;15382;47.578;8.086;2023-11-21T14:13:24;8.60;99.90
28069;DHT22;15382;47.578;8.086;2023-11-21T14:23:27;8.60;99.90
28069;DHT22;15382;47.578;8.086;2023-11-21T14:33:30;8.60;99.90
28069;DHT22;15382;47.578;8.086;2023-11-21T14:43:31;8.50;99.90
28069;DHT22;15382;47.578;8.086;2023-11-21T14:53:35;8.50;99.90
28069;DHT22;15382;47.578;8.086;2023-11-21T15:03:54;8.50;99.90
28069;DHT22;15382;47.578;8.086;2023-11-21T15:13:56;8.30;99.90
28069;DHT22;15382;47.578;8.086;2023-11-21T15:23:57;8.20;99.90
28069;DHT22;15382;47.578;8.086;2023-11-21T15:33:57;8.10;99.90
28069;DHT22;15382;47.578;8.086;2023-11-21T15:44:00;8.20;99.90
28069;DHT22;15382;47.578;8.086;2023-11-21T15:54:01;8.20;99.90
28069;DHT22;15382;47.578;8.086;2023-11-21T16:04:01;8.10;99.90
28069;DHT22;15382;47.578;8.086;2023-11-21T16:14:03;8.10;99.90
28069;DHT22;15382;47.578;8.086;2023-11-21T16:24:04;8.10;99.90
28069;DHT22;15382;47.578;8.086;2023-11-21T16:34:11;8.00;99.90
28069;DHT22;15382;47.578;8.086;2023-11-21T16:44:16;8.00;99.90
28069;DHT22;15382;47.578;8.086;2023-11-21T16:54:17;7.70;99.90
28069;DHT22;15382;47.578;8.086;2023-11-21T17:04:19;7.50;99.90
28069;DHT22;15382;47.578;8.086;2023-11-21T17:14:20;7.50;99.90
28069;DHT22;15382;47.578;8.086;2023-11-21T17:24:21;7.40;99.90
28069;DHT22;15382;47.578;8.086;2023-11-21T17:34:21;7.30;99.90
28069;DHT22;15382;47.578;8.086;2023-11-21T17:44:22;7.40;99.90
28069;DHT22;15382;47.578;8.086;2023-11-21T17:54:23;7.40;99.90
28069;DHT22;15382;47.578;8.086;2023-11-21T18:04:23;7.40;99.90
28069;DHT22;15382;47.578;8.086;2023-11-21T18:14:24;7.30;99.90
28069;DHT22;15382;47.578;8.086;2023-11-21T18:24:25;7.20;99.90
28069;DHT22;15382;47.578;8.086;2023-11-21T18:34:25;7.20;99.90
28069;DHT22;15382;47.578;8.086;2023-11-21T18:44:26;7.30;99.90
28069;DHT22;15382;47.578;8.086;2023-11-21T18:54:27;7.30;99.90
28069;DHT22;15382;47.578;8.086;2023-11-21T19:04:28;7.30;99.90
28069;DHT22;15382;47.578;8.086;2023-11-21T19:14:29;7.30;99.90
28069;DHT22;15382;47.578;8.086;2023-11-21T19:24:30;7.20;99.90
28069;DHT22;15382;47.578;8.086;2023-11-21T19:34:30;7.20;99.90
28069;DHT22;15382;47.578;8.086;2023-11-21T19:44:31;7.30;99.90
28069;DHT22;15382;47.578;8.086;2023-11-21T19:54:33;7.40;99.90
28069;DHT22;15382;47.578;8.086;2023-11-21T20:04:33;7.50;99.90
28069;DHT22;15382;47.578;8.086;2023-11-21T20:14:34;7.40;99.90
28069;DHT22;15382;47.578;8.086;2023-11-21T20:24:35;7.30;99.90
28069;DHT22;15382;47.578;8.086;2023-11-21T20:34:36;7.20;99.90
28069;DHT22;15382;47.578;8.086;2023-11-21T20:44:37;7.20;99.90
28069;DHT22;15382;47.578;8.086;2023-11-21T20:54:38;7.20;99.90
28069;DHT22;15382;47.578;8.086;2023-11-21T21:04:39;7.20;99.90
28069;DHT22;15382;47.578;8.086;2023-11-21T21:14:39;7.20;99.90
28069;DHT22;15382;47.578;8.086;2023-11-21T21:24:40;7.10;99.90
28069;DHT22;15382;47.578;8.086;2023-11-21T21:34:41;7.10;99.90
28069;DHT22;15382;47.578;8.086;2023-11-21T21:44:42;7.00;99.90
28069;DHT22;15382;47.578;8.086;2023-11-21T21:54:42;7.00;99.90
28069;DHT22;15382;47.578;8.086;2023-11-21T22:04:43;6.90;99.90
28069;DHT22;15382;47.578;8.086;2023-11-21T22:14:44;6.80;99.90
28069;DHT22;15382;47.578;8.086;2023-11-21T22:24:45;7.00;99.90
28069;DHT22;15382;47.578;8.086;2023-11-21T22:34:46;6.90;99.90
28069;DHT22;15382;47.578;8.086;2023-11-21T22:44:46;6.90;99.90
28069;DHT22;15382;47.578;8.086;2023-11-21T22:54:47;6.80;99.90
28069;DHT22;15382;47.578;8.086;2023-11-21T23:04:48;6.70;99.90
28069;DHT22;15382;47.578;8.086;2023-11-21T23:14:49;6.70;99.90
28069;DHT22;15382;47.578;8.086;2023-11-21T23:24:49;6.60;99.90
28069;DHT22;15382;47.578;8.086;2023-11-21T23:34:50;6.60;99.90
28069;DHT22;15382;47.578;8.086;2023-11-21T23:44:51;6.50;99.90
28069;DHT22;15382;47.578;8.086;2023-11-21T23:54:53;6.60;99.90
